createdAt,value
2023-05-09T00:00:46.239Z,21.80
2023-05-09T00:03:14.429Z,21.80
2023-05-09T00:05:42.005Z,21.90
2023-05-09T00:08:09.131Z,21.80
2023-05-09T00:10:36.749Z,21.80
2023-05-09T00:13:04.135Z,21.80
2023-05-09T00:15:32.094Z,21.80
2023-05-09T00:17:59.445Z,21.80
2023-05-09T00:20:26.469Z,21.80
2023-05-09T00:22:53.301Z,21.80
2023-05-09T00:25:20.325Z,21.70
2023-05-09T00:27:47.383Z,21.70
2023-05-09T00:30:14.168Z,21.70
2023-05-09T00:32:41.791Z,21.70
2023-05-09T00:35:10.352Z,21.60
2023-05-09T00:37:37.407Z,21.60
2023-05-09T00:40:06.381Z,21.50
2023-05-09T00:42:33.617Z,21.50
2023-05-09T00:45:00.615Z,21.50
2023-05-09T00:47:29.569Z,21.50
2023-05-09T00:49:57.245Z,21.50
2023-05-09T00:52:28.033Z,21.60
2023-05-09T00:54:55.849Z,21.50
2023-05-09T00:57:23.411Z,21.50
2023-05-09T00:59:50.610Z,21.50
2023-05-09T01:02:18.206Z,21.50
2023-05-09T01:04:48.472Z,21.50
2023-05-09T01:07:46.015Z,21.50
2023-05-09T01:10:28.009Z,21.50
2023-05-09T01:13:17.241Z,21.50
2023-05-09T01:15:53.887Z,21.50
2023-05-09T01:18:34.711Z,21.50
2023-05-09T01:21:07.762Z,21.50
2023-05-09T01:23:37.265Z,21.50
2023-05-09T01:26:06.434Z,21.50
2023-05-09T01:29:11.121Z,21.50
2023-05-09T01:31:41.934Z,21.50
2023-05-09T01:34:11.229Z,21.40
2023-05-09T01:36:42.263Z,21.50
2023-05-09T01:39:12.658Z,21.40
2023-05-09T01:41:40.012Z,21.50
2023-05-09T01:44:11.273Z,21.50
2023-05-09T01:46:39.243Z,21.60
2023-05-09T01:49:09.230Z,21.50
2023-05-09T01:51:37.564Z,21.50
2023-05-09T01:54:05.886Z,21.50
2023-05-09T01:56:33.147Z,21.50
2023-05-09T01:59:02.244Z,21.50
2023-05-09T02:01:30.463Z,21.50
2023-05-09T02:03:57.964Z,21.50
2023-05-09T02:06:25.489Z,21.50
2023-05-09T02:08:52.529Z,21.50
2023-05-09T02:11:19.377Z,21.50
2023-05-09T02:13:46.223Z,21.50
2023-05-09T02:16:13.324Z,21.40
2023-05-09T02:18:40.098Z,21.40
2023-05-09T02:21:07.151Z,21.40
2023-05-09T02:23:34.805Z,21.40
2023-05-09T02:26:02.321Z,21.40
2023-05-09T02:28:30.547Z,21.40
2023-05-09T02:31:00.386Z,21.40
2023-05-09T02:33:28.118Z,21.40
2023-05-09T02:35:56.449Z,21.40
2023-05-09T02:38:24.122Z,21.40
2023-05-09T02:40:52.700Z,21.40
2023-05-09T02:43:19.689Z,21.30
2023-05-09T02:45:46.598Z,21.30
2023-05-09T02:48:13.734Z,21.30
2023-05-09T02:50:43.400Z,21.30
2023-05-09T02:53:10.229Z,21.30
2023-05-09T02:55:37.019Z,21.20
2023-05-09T02:58:13.261Z,21.20
2023-05-09T03:00:42.176Z,21.20
2023-05-09T03:03:09.424Z,21.10
2023-05-09T03:05:36.590Z,21.10
2023-05-09T03:08:03.795Z,21.20
2023-05-09T03:10:30.729Z,21.10
2023-05-09T03:12:57.543Z,21.10
2023-05-09T03:15:24.544Z,21.10
2023-05-09T03:17:51.770Z,21.20
2023-05-09T03:20:18.881Z,21.20
2023-05-09T03:22:46.066Z,21.20
2023-05-09T03:25:13.328Z,21.20
2023-05-09T03:27:40.502Z,21.10
2023-05-09T03:30:07.871Z,21.10
2023-05-09T03:32:34.728Z,21.20
2023-05-09T03:35:01.505Z,21.20
2023-05-09T03:37:28.406Z,21.20
2023-05-09T03:39:55.625Z,21.20
2023-05-09T03:42:23.010Z,21.20
2023-05-09T03:44:49.852Z,21.20
2023-05-09T03:47:16.854Z,21.20
2023-05-09T03:49:43.761Z,21.20
2023-05-09T03:52:11.210Z,21.20
2023-05-09T03:54:37.994Z,21.20
2023-05-09T03:57:04.867Z,21.30
2023-05-09T03:59:31.764Z,21.20
2023-05-09T04:01:58.713Z,21.30
2023-05-09T04:04:25.884Z,21.30
2023-05-09T04:06:52.969Z,21.20
2023-05-09T04:09:19.885Z,21.20
2023-05-09T04:11:46.822Z,21.20
2023-05-09T04:14:13.635Z,21.20
2023-05-09T04:16:40.624Z,21.20
2023-05-09T04:19:07.528Z,21.20
2023-05-09T04:21:34.393Z,21.20
2023-05-09T04:24:01.311Z,21.20
2023-05-09T04:26:28.415Z,21.20
2023-05-09T04:28:55.404Z,21.20
2023-05-09T04:31:23.172Z,21.10
2023-05-09T04:33:50.557Z,21.10
2023-05-09T04:36:17.352Z,21.10
2023-05-09T04:38:44.234Z,21.10
2023-05-09T04:41:11.420Z,21.10
2023-05-09T04:43:38.569Z,21.10
2023-05-09T04:46:05.721Z,21.10
2023-05-09T04:48:32.996Z,21.20
2023-05-09T04:51:00.039Z,21.20
2023-05-09T04:53:28.540Z,21.20
2023-05-09T04:55:56.297Z,21.30
2023-05-09T04:58:23.544Z,21.30
2023-05-09T05:00:50.345Z,21.20
2023-05-09T05:03:18.013Z,21.20
2023-05-09T05:05:44.925Z,21.30
2023-05-09T05:08:15.347Z,21.40
2023-05-09T05:10:42.007Z,21.30
2023-05-09T05:13:08.762Z,21.40
2023-05-09T05:15:35.689Z,21.40
2023-05-09T05:18:02.525Z,21.50
2023-05-09T05:20:29.484Z,21.50
2023-05-09T05:22:56.644Z,21.60
2023-05-09T05:25:23.779Z,21.60
2023-05-09T05:27:50.804Z,21.70
2023-05-09T05:30:17.769Z,21.70
2023-05-09T05:32:45.143Z,21.80
2023-05-09T05:35:12.466Z,21.80
2023-05-09T05:37:40.355Z,21.80
2023-05-09T05:40:08.076Z,21.90
2023-05-09T05:42:35.018Z,22.00
2023-05-09T05:45:04.544Z,22.00
2023-05-09T05:47:35.562Z,22.10
2023-05-09T05:50:04.780Z,22.20
2023-05-09T05:52:31.899Z,22.30
2023-05-09T05:54:58.844Z,22.40
2023-05-09T05:57:25.785Z,22.40
2023-05-09T05:59:52.580Z,22.60
2023-05-09T06:02:19.616Z,22.60
2023-05-09T06:04:46.384Z,22.60
2023-05-09T06:07:14.226Z,22.60
2023-05-09T06:09:41.350Z,22.60
2023-05-09T06:12:08.230Z,22.60
2023-05-09T06:14:34.980Z,22.60
2023-05-09T06:17:02.100Z,22.60
2023-05-09T06:19:28.955Z,22.60
2023-05-09T06:21:56.158Z,22.60
2023-05-09T06:24:34.573Z,22.70
2023-05-09T06:27:03.521Z,22.60
2023-05-09T06:29:30.779Z,22.60
2023-05-09T06:31:57.625Z,22.60
2023-05-09T06:34:24.563Z,22.60
2023-05-09T06:36:51.469Z,22.60
2023-05-09T06:39:18.602Z,22.60
2023-05-09T06:41:45.788Z,22.60
2023-05-09T06:44:12.637Z,22.60
2023-05-09T06:46:39.467Z,22.60
2023-05-09T06:49:06.450Z,22.50
2023-05-09T06:51:33.554Z,22.50
2023-05-09T06:54:00.342Z,22.60
2023-05-09T06:56:27.189Z,22.60
2023-05-09T06:58:54.428Z,22.70
2023-05-09T07:01:21.409Z,22.70
2023-05-09T07:03:48.544Z,22.80
2023-05-09T07:06:15.872Z,22.70
2023-05-09T07:08:42.671Z,22.70
2023-05-09T07:11:09.410Z,22.70
2023-05-09T07:13:36.958Z,22.80
2023-05-09T07:16:04.099Z,22.80
2023-05-09T07:18:31.150Z,22.80
2023-05-09T07:20:57.968Z,22.90
2023-05-09T07:23:26.153Z,22.80
2023-05-09T07:25:59.223Z,22.90
2023-05-09T07:28:26.141Z,22.90
2023-05-09T07:30:55.459Z,22.90
2023-05-09T07:33:22.461Z,22.90
2023-05-09T07:35:49.669Z,22.80
2023-05-09T07:38:16.519Z,22.80
2023-05-09T07:40:43.518Z,22.80
2023-05-09T07:43:10.509Z,22.80
2023-05-09T07:45:37.559Z,22.90
2023-05-09T07:48:05.053Z,22.90
2023-05-09T07:50:31.862Z,22.90
2023-05-09T07:53:00.048Z,22.80
2023-05-09T07:55:26.851Z,22.80
2023-05-09T07:57:53.691Z,22.80
2023-05-09T08:00:23.911Z,22.80
2023-05-09T08:02:51.911Z,22.90
2023-05-09T08:05:19.579Z,22.90
2023-05-09T08:07:46.554Z,22.80
2023-05-09T08:10:13.660Z,22.80
2023-05-09T08:12:40.745Z,22.80
2023-05-09T08:15:07.952Z,22.80
2023-05-09T08:17:34.886Z,22.70
2023-05-09T08:20:01.700Z,22.80
2023-05-09T08:22:28.548Z,22.90
2023-05-09T08:24:55.364Z,22.90
2023-05-09T08:27:22.099Z,22.80
2023-05-09T08:29:48.847Z,22.90
2023-05-09T08:32:15.784Z,22.90
2023-05-09T08:34:42.580Z,22.90
2023-05-09T08:37:09.437Z,22.90
2023-05-09T08:39:36.451Z,22.90
2023-05-09T08:42:03.585Z,22.90
2023-05-09T08:44:31.470Z,22.90
2023-05-09T08:47:04.439Z,22.90
2023-05-09T08:49:32.065Z,22.80
2023-05-09T08:51:59.710Z,22.80
2023-05-09T08:54:27.151Z,22.80
2023-05-09T08:56:54.172Z,22.70
2023-05-09T08:59:22.341Z,22.80
2023-05-09T09:01:49.599Z,22.90
2023-05-09T09:04:16.648Z,22.90
2023-05-09T09:06:43.994Z,22.90
2023-05-09T09:09:13.052Z,23.00
2023-05-09T09:11:40.949Z,23.00
2023-05-09T09:14:20.390Z,23.00
2023-05-09T09:16:49.047Z,23.00
2023-05-09T09:19:18.100Z,23.10
2023-05-09T09:21:47.655Z,23.10
2023-05-09T09:24:19.033Z,23.00
2023-05-09T09:26:48.384Z,23.00
2023-05-09T09:29:17.017Z,23.00
2023-05-09T09:31:48.282Z,22.90
2023-05-09T09:34:22.836Z,22.90
2023-05-09T09:36:50.311Z,22.90
2023-05-09T09:39:17.226Z,22.90
2023-05-09T09:41:46.727Z,22.90
2023-05-09T09:44:16.146Z,22.90
2023-05-09T09:46:50.565Z,22.90
2023-05-09T09:49:19.765Z,22.90
2023-05-09T09:51:57.226Z,22.90
2023-05-09T09:54:27.806Z,22.90
2023-05-09T09:56:55.456Z,22.90
2023-05-09T09:59:25.888Z,22.90
2023-05-09T10:02:08.007Z,22.90
2023-05-09T10:04:37.316Z,22.90
2023-05-09T10:07:06.340Z,22.80
2023-05-09T10:09:34.914Z,22.70
2023-05-09T10:12:07.042Z,22.70
2023-05-09T10:14:35.635Z,22.90
2023-05-09T10:17:05.438Z,22.90
2023-05-09T10:19:32.773Z,23.00
2023-05-09T10:22:04.532Z,23.00
2023-05-09T10:24:39.980Z,23.00
2023-05-09T10:27:11.585Z,23.00
2023-05-09T10:29:57.482Z,23.00
2023-05-09T10:32:45.888Z,23.00
2023-05-09T10:35:17.367Z,23.00
2023-05-09T10:37:46.525Z,23.00
2023-05-09T10:40:16.622Z,23.00
2023-05-09T10:42:44.471Z,23.00
2023-05-09T10:45:12.809Z,23.00
2023-05-09T10:47:44.471Z,23.00
2023-05-09T10:50:13.214Z,23.00
2023-05-09T10:53:05.314Z,23.10
2023-05-09T10:55:47.606Z,23.10
2023-05-09T10:58:21.793Z,23.00
2023-05-09T11:00:50.711Z,23.00
2023-05-09T11:03:19.996Z,23.10
2023-05-09T11:05:49.142Z,23.10
2023-05-09T11:08:26.845Z,23.10
2023-05-09T11:10:55.598Z,23.10
2023-05-09T11:13:24.610Z,23.00
2023-05-09T11:16:00.780Z,23.10
2023-05-09T11:18:32.795Z,23.10
2023-05-09T11:21:07.017Z,23.10
2023-05-09T11:23:33.941Z,23.00
2023-05-09T11:26:08.615Z,23.00
2023-05-09T11:28:37.950Z,23.00
2023-05-09T11:31:12.361Z,23.00
2023-05-09T11:33:40.296Z,23.10
2023-05-09T11:36:30.170Z,23.10
2023-05-09T11:39:25.305Z,23.10
2023-05-09T11:41:53.109Z,23.10
2023-05-09T11:44:23.037Z,23.10
2023-05-09T11:46:50.479Z,23.10
2023-05-09T11:49:19.469Z,23.00
2023-05-09T11:51:46.369Z,23.00
2023-05-09T11:54:14.901Z,23.00
2023-05-09T11:56:42.154Z,22.90
2023-05-09T11:59:10.704Z,22.80
2023-05-09T12:01:37.723Z,22.80
2023-05-09T12:04:07.693Z,22.80
2023-05-09T12:06:34.619Z,22.70
2023-05-09T12:09:01.529Z,22.60
2023-05-09T12:11:32.292Z,22.50
2023-05-09T12:13:59.354Z,22.40
2023-05-09T12:16:26.269Z,22.40
2023-05-09T12:18:53.630Z,22.30
2023-05-09T12:21:21.707Z,22.20
2023-05-09T12:23:51.314Z,22.20
2023-05-09T12:26:22.071Z,22.30
2023-05-09T12:28:49.008Z,22.40
2023-05-09T12:31:17.205Z,22.40
2023-05-09T12:33:44.160Z,22.40
2023-05-09T12:36:12.663Z,22.40
2023-05-09T12:38:40.254Z,22.40
2023-05-09T12:41:18.857Z,22.30
2023-05-09T12:43:56.392Z,22.30
2023-05-09T12:46:23.519Z,22.30
2023-05-09T12:48:51.005Z,22.40
2023-05-09T12:51:22.340Z,22.50
2023-05-09T12:53:49.410Z,22.60
2023-05-09T12:56:23.116Z,22.60
2023-05-09T12:58:50.584Z,22.70
2023-05-09T13:01:18.488Z,22.80
2023-05-09T13:03:51.067Z,22.90
2023-05-09T13:06:18.066Z,22.90
2023-05-09T13:08:56.732Z,22.90
2023-05-09T13:11:24.860Z,22.70
2023-05-09T13:13:51.756Z,22.70
2023-05-09T13:16:18.585Z,22.80
2023-05-09T13:18:45.609Z,22.80
2023-05-09T13:21:12.731Z,22.90
2023-05-09T13:23:39.560Z,22.80
2023-05-09T13:26:06.377Z,22.80
2023-05-09T13:28:33.214Z,22.80
2023-05-09T13:31:01.408Z,22.90
2023-05-09T13:33:28.469Z,22.90
2023-05-09T13:35:55.510Z,22.80
2023-05-09T13:38:22.394Z,22.80
2023-05-09T13:40:49.566Z,22.70
2023-05-09T13:43:16.360Z,22.80
2023-05-09T13:45:43.217Z,22.90
2023-05-09T13:48:10.184Z,22.80
2023-05-09T13:50:37.085Z,22.70
2023-05-09T13:53:04.198Z,22.70
2023-05-09T13:55:31.150Z,22.80
2023-05-09T13:57:58.047Z,22.70
2023-05-09T14:00:26.653Z,22.60
2023-05-09T14:02:53.678Z,22.60
2023-05-09T14:05:20.536Z,22.60
2023-05-09T14:07:47.783Z,22.60
2023-05-09T14:10:15.510Z,22.60
2023-05-09T14:12:44.580Z,22.50
2023-05-09T14:15:11.668Z,22.60
2023-05-09T14:17:39.685Z,22.50
2023-05-09T14:20:07.402Z,22.50
2023-05-09T14:22:34.203Z,22.30
2023-05-09T14:25:01.223Z,22.30
2023-05-09T14:27:28.079Z,22.30
2023-05-09T14:29:55.146Z,22.40
2023-05-09T14:32:22.034Z,22.40
2023-05-09T14:34:51.836Z,22.40
2023-05-09T14:37:19.093Z,22.40
2023-05-09T14:39:47.069Z,22.40
2023-05-09T14:42:14.527Z,22.40
2023-05-09T14:44:41.962Z,22.40
2023-05-09T14:47:10.749Z,22.40
2023-05-09T14:49:40.117Z,22.50
2023-05-09T14:52:06.974Z,22.60
2023-05-09T14:54:34.776Z,22.70
2023-05-09T14:57:04.534Z,22.70
2023-05-09T14:59:32.328Z,22.70
2023-05-09T15:01:59.758Z,22.60
2023-05-09T15:04:31.190Z,22.60
2023-05-09T15:06:59.115Z,22.50
2023-05-09T15:09:26.465Z,22.60
2023-05-09T15:11:53.641Z,22.60
2023-05-09T15:14:20.682Z,22.60
2023-05-09T15:16:48.303Z,22.60
2023-05-09T15:19:15.129Z,22.60
2023-05-09T15:21:41.868Z,22.70
2023-05-09T15:24:08.686Z,22.70
2023-05-09T15:26:35.464Z,22.80
2023-05-09T15:29:02.449Z,22.70
2023-05-09T15:31:33.540Z,22.70
2023-05-09T15:34:01.421Z,22.70
2023-05-09T15:36:32.351Z,22.80
2023-05-09T15:38:59.549Z,22.80
2023-05-09T15:41:26.344Z,22.80
2023-05-09T15:43:53.164Z,22.80
2023-05-09T15:46:20.273Z,22.90
2023-05-09T15:48:47.720Z,22.90
2023-05-09T15:51:14.749Z,22.90
2023-05-09T15:53:42.151Z,22.90
2023-05-09T15:56:09.501Z,22.70
2023-05-09T15:58:36.893Z,22.70
2023-05-09T16:01:06.222Z,22.60
2023-05-09T16:03:33.396Z,22.60
2023-05-09T16:06:00.825Z,22.40
2023-05-09T16:08:27.778Z,22.40
2023-05-09T16:10:54.764Z,22.40
2023-05-09T16:13:21.576Z,22.30
2023-05-09T16:15:50.374Z,22.30
2023-05-09T16:18:17.490Z,22.20
2023-05-09T16:20:44.450Z,22.20
2023-05-09T16:23:11.891Z,22.10
2023-05-09T16:25:38.940Z,22.10
2023-05-09T16:28:09.608Z,22.10
2023-05-09T16:30:36.563Z,22.00
2023-05-09T16:33:03.890Z,21.90
2023-05-09T16:35:30.769Z,22.00
2023-05-09T16:37:57.742Z,22.00
2023-05-09T16:40:24.716Z,22.00
2023-05-09T16:42:51.501Z,21.90
2023-05-09T16:45:18.408Z,21.90
2023-05-09T16:47:45.427Z,21.90
2023-05-09T16:50:12.293Z,21.80
2023-05-09T16:52:39.128Z,21.80
2023-05-09T16:55:06.839Z,21.80
2023-05-09T16:57:33.647Z,21.80
2023-05-09T17:00:00.547Z,21.80
2023-05-09T17:02:27.565Z,21.80
2023-05-09T17:04:54.869Z,21.80
2023-05-09T17:07:22.230Z,21.80
2023-05-09T17:09:49.888Z,21.80
2023-05-09T17:12:18.500Z,21.80
2023-05-09T17:14:46.908Z,21.80
2023-05-09T17:17:14.812Z,21.80
2023-05-09T17:19:41.896Z,21.80
2023-05-09T17:22:09.068Z,21.70
2023-05-09T17:24:35.874Z,21.80
2023-05-09T17:27:04.559Z,21.80
2023-05-09T17:29:32.661Z,21.80
2023-05-09T17:32:02.413Z,21.80
2023-05-09T17:34:29.647Z,21.80
2023-05-09T17:36:56.795Z,21.80
2023-05-09T17:39:24.135Z,21.80
2023-05-09T17:41:51.145Z,21.80
2023-05-09T17:44:17.920Z,21.70
2023-05-09T17:46:44.860Z,21.60
2023-05-09T17:49:14.106Z,21.70
2023-05-09T17:51:41.327Z,21.70
2023-05-09T17:54:08.327Z,21.80
2023-05-09T17:56:35.677Z,21.70
2023-05-09T17:59:03.027Z,21.70
2023-05-09T18:01:29.885Z,21.70
2023-05-09T18:03:57.357Z,21.60
2023-05-09T18:06:24.280Z,21.60
2023-05-09T18:08:51.142Z,21.60
2023-05-09T18:11:18.084Z,21.60
2023-05-09T18:13:44.780Z,21.50
2023-05-09T18:16:11.736Z,21.40
2023-05-09T18:18:39.048Z,21.40
2023-05-09T18:21:07.973Z,21.30
2023-05-09T18:23:34.990Z,21.30
2023-05-09T18:26:02.001Z,21.30
2023-05-09T18:28:28.938Z,21.30
2023-05-09T18:30:58.448Z,21.40
2023-05-09T18:33:27.448Z,21.40
2023-05-09T18:35:55.330Z,21.30
2023-05-09T18:38:22.866Z,21.30
2023-05-09T18:40:51.807Z,21.20
2023-05-09T18:43:20.692Z,21.10
2023-05-09T18:45:48.544Z,21.20
2023-05-09T18:48:16.728Z,21.30
2023-05-09T18:50:43.587Z,21.30
2023-05-09T18:53:10.395Z,21.20
2023-05-09T18:55:37.210Z,21.10
2023-05-09T18:58:04.228Z,21.10
2023-05-09T19:00:31.052Z,21.10
2023-05-09T19:02:58.108Z,21.10
2023-05-09T19:05:26.168Z,21.10
2023-05-09T19:07:54.284Z,21.10
2023-05-09T19:10:21.338Z,21.10
2023-05-09T19:12:49.565Z,21.10
2023-05-09T19:15:16.409Z,21.10
2023-05-09T19:17:43.618Z,21.10
2023-05-09T19:20:11.606Z,21.10
2023-05-09T19:22:41.292Z,21.10
2023-05-09T19:25:08.544Z,21.10
2023-05-09T19:27:35.369Z,21.20
2023-05-09T19:30:04.393Z,21.10
2023-05-09T19:32:31.777Z,21.10
2023-05-09T19:34:58.892Z,21.10
2023-05-09T19:37:25.835Z,21.10
2023-05-09T19:39:52.923Z,21.10
2023-05-09T19:42:19.780Z,21.10
2023-05-09T19:44:46.957Z,21.10
2023-05-09T19:47:13.867Z,21.00
2023-05-09T19:49:42.549Z,21.00
2023-05-09T19:52:09.338Z,21.00
2023-05-09T19:54:36.226Z,21.00
2023-05-09T19:57:06.627Z,21.00
2023-05-09T19:59:33.515Z,21.10
2023-05-09T20:02:00.508Z,21.10
2023-05-09T20:04:27.596Z,21.00
2023-05-09T20:06:54.451Z,21.00
2023-05-09T20:09:21.299Z,21.00
2023-05-09T20:11:48.518Z,21.00
2023-05-09T20:14:15.317Z,21.00
2023-05-09T20:16:43.830Z,21.00
2023-05-09T20:19:14.743Z,21.00
2023-05-09T20:21:41.729Z,20.90
2023-05-09T20:24:08.845Z,20.80
2023-05-09T20:26:36.022Z,20.80
2023-05-09T20:29:04.939Z,20.70
2023-05-09T20:31:32.314Z,20.70
2023-05-09T20:33:59.280Z,20.70
2023-05-09T20:36:28.046Z,20.50
2023-05-09T20:38:57.640Z,20.50
2023-05-09T20:41:25.412Z,20.50
2023-05-09T20:43:53.981Z,20.50
2023-05-09T20:46:21.781Z,20.50
2023-05-09T20:48:48.801Z,20.50
2023-05-09T20:51:15.620Z,20.40
2023-05-09T20:53:42.483Z,20.20
2023-05-09T20:56:09.318Z,20.20
2023-05-09T20:58:36.152Z,20.10
2023-05-09T21:01:03.126Z,20.10
2023-05-09T21:03:29.996Z,20.00
2023-05-09T21:05:58.893Z,20.00
2023-05-09T21:08:25.962Z,20.00
2023-05-09T21:10:52.886Z,20.00
2023-05-09T21:13:19.982Z,20.00
2023-05-09T21:15:50.161Z,19.90
2023-05-09T21:18:17.303Z,19.80
2023-05-09T21:20:45.125Z,19.90
2023-05-09T21:23:12.217Z,19.80
2023-05-09T21:25:39.328Z,19.80
2023-05-09T21:28:06.215Z,19.80
2023-05-09T21:30:33.062Z,19.80
2023-05-09T21:33:00.259Z,19.80
2023-05-09T21:35:27.044Z,19.80
2023-05-09T21:37:54.204Z,19.80
2023-05-09T21:40:21.295Z,19.80
2023-05-09T21:42:48.178Z,19.80
2023-05-09T21:45:15.095Z,19.80
2023-05-09T21:47:42.264Z,19.80
2023-05-09T21:50:09.597Z,19.90
2023-05-09T21:52:36.435Z,19.90
2023-05-09T21:55:03.289Z,19.80
2023-05-09T21:57:30.422Z,19.70
2023-05-09T22:00:01.303Z,19.70
2023-05-09T22:02:29.271Z,19.70
2023-05-09T22:04:56.383Z,19.70
2023-05-09T22:07:24.934Z,19.70
2023-05-09T22:09:51.818Z,19.80
2023-05-09T22:12:18.698Z,19.70
2023-05-09T22:14:55.858Z,19.80
2023-05-09T22:17:24.482Z,19.80
2023-05-09T22:19:51.267Z,19.80
2023-05-09T22:22:18.048Z,19.80
2023-05-09T22:24:44.890Z,19.90
2023-05-09T22:27:11.790Z,19.90
2023-05-09T22:29:38.851Z,19.90
2023-05-09T22:32:08.336Z,19.90
2023-05-09T22:34:35.447Z,19.90
2023-05-09T22:37:02.249Z,19.90
2023-05-09T22:39:29.527Z,20.00
2023-05-09T22:41:56.445Z,19.90
2023-05-09T22:44:23.451Z,19.90
2023-05-09T22:46:50.428Z,19.90
2023-05-09T22:49:17.527Z,19.90
2023-05-09T22:51:44.468Z,19.90
2023-05-09T22:54:11.618Z,19.90
2023-05-09T22:56:38.442Z,20.00
2023-05-09T22:59:05.569Z,19.90
2023-05-09T23:01:32.722Z,19.90
2023-05-09T23:03:59.566Z,19.90
2023-05-09T23:06:26.388Z,19.90
2023-05-09T23:08:53.237Z,19.90
2023-05-09T23:11:21.562Z,19.90
2023-05-09T23:13:48.769Z,19.90
2023-05-09T23:16:16.247Z,19.90
2023-05-09T23:18:43.059Z,19.90
2023-05-09T23:21:10.098Z,19.90
2023-05-09T23:23:37.126Z,19.90
2023-05-09T23:26:03.838Z,19.90
2023-05-09T23:28:30.563Z,19.80
2023-05-09T23:30:57.396Z,19.90
2023-05-09T23:33:24.183Z,19.80
2023-05-09T23:35:51.178Z,19.90
2023-05-09T23:38:18.018Z,19.90
2023-05-09T23:40:46.176Z,19.90
2023-05-09T23:43:14.008Z,19.90
2023-05-09T23:45:41.042Z,19.90
2023-05-09T23:48:07.992Z,19.80
2023-05-09T23:50:35.073Z,19.90
2023-05-09T23:53:04.817Z,19.90
2023-05-09T23:55:33.645Z,19.80
2023-05-09T23:58:03.464Z,19.90
